createdAt,value
2022-08-16T00:01:24.732Z,12.43
2022-08-16T00:03:55.324Z,15.13
2022-08-16T00:06:24.486Z,13.73
2022-08-16T00:08:52.694Z,14.20
2022-08-16T00:11:22.064Z,17.52
2022-08-16T00:13:54.174Z,17.92
2022-08-16T00:17:00.501Z,15.40
2022-08-16T00:19:14.783Z,14.43
2022-08-16T00:21:43.766Z,18.13
2022-08-16T00:24:32.360Z,14.85
2022-08-16T00:27:01.731Z,16.40
2022-08-16T00:29:30.219Z,17.77
2022-08-16T00:32:06.064Z,18.88
2022-08-16T00:34:43.391Z,19.17
2022-08-16T00:37:24.578Z,15.50
2022-08-16T00:39:57.549Z,15.73
2022-08-16T00:42:30.156Z,18.42
2022-08-16T00:45:06.336Z,16.63
2022-08-16T00:47:42.608Z,16.05
2022-08-16T00:50:17.550Z,18.35
2022-08-16T00:52:50.231Z,15.25
2022-08-16T00:55:18.986Z,18.00
2022-08-16T00:57:59.506Z,18.30
2022-08-16T01:00:31.725Z,15.00
2022-08-16T01:03:12.654Z,17.80
2022-08-16T01:05:41.176Z,15.15
2022-08-16T01:08:35.824Z,15.70
2022-08-16T01:11:00.092Z,16.85
2022-08-16T01:13:33.811Z,17.20
2022-08-16T01:16:10.262Z,16.20
2022-08-16T01:18:45.133Z,22.60
2022-08-16T01:21:24.128Z,18.27
2022-08-16T01:24:52.574Z,17.98
2022-08-16T01:27:15.016Z,18.65
2022-08-16T01:29:57.671Z,16.88
2022-08-16T01:32:33.262Z,18.58
2022-08-16T01:35:03.224Z,18.73
2022-08-16T01:37:39.949Z,18.00
2022-08-16T01:40:15.448Z,21.00
2022-08-16T01:42:44.922Z,20.60
2022-08-16T01:45:19.616Z,19.85
2022-08-16T01:47:51.905Z,17.83
2022-08-16T01:50:42.184Z,22.27
2022-08-16T01:53:11.154Z,19.67
2022-08-16T01:55:42.826Z,20.40
2022-08-16T01:58:23.849Z,19.70
2022-08-16T02:00:51.857Z,21.17
2022-08-16T02:03:24.231Z,20.40
2022-08-16T02:05:52.605Z,19.85
2022-08-16T02:08:32.591Z,21.42
2022-08-16T02:11:04.765Z,18.88
2022-08-16T02:13:33.024Z,20.50
2022-08-16T02:16:01.270Z,20.65
2022-08-16T02:18:29.843Z,20.38
2022-08-16T02:20:58.060Z,20.38
2022-08-16T02:23:29.595Z,25.60
2022-08-16T02:25:59.394Z,23.65
2022-08-16T02:28:30.106Z,19.13
2022-08-16T02:31:00.464Z,19.60
2022-08-16T02:33:43.732Z,20.15
2022-08-16T02:36:42.412Z,21.30
2022-08-16T02:39:02.348Z,19.27
2022-08-16T02:41:31.229Z,20.38
2022-08-16T02:44:03.652Z,21.35
2022-08-16T02:46:33.687Z,21.20
2022-08-16T02:49:02.266Z,24.58
2022-08-16T02:51:30.165Z,20.67
2022-08-16T02:53:59.718Z,23.77
2022-08-16T02:56:32.278Z,23.42
2022-08-16T02:59:00.830Z,20.30
2022-08-16T03:01:37.122Z,18.17
2022-08-16T03:04:40.685Z,21.92
2022-08-16T03:06:56.682Z,21.10
2022-08-16T03:09:25.414Z,21.65
2022-08-16T03:11:57.127Z,19.70
2022-08-16T03:14:26.093Z,22.30
2022-08-16T03:16:59.134Z,25.27
2022-08-16T03:19:47.038Z,21.20
2022-08-16T03:22:19.306Z,20.45
2022-08-16T03:24:58.814Z,24.40
2022-08-16T03:27:31.353Z,24.38
2022-08-16T03:30:02.450Z,21.92
2022-08-16T03:32:47.237Z,22.00
2022-08-16T03:35:17.862Z,20.67
2022-08-16T03:38:01.377Z,21.65
2022-08-16T03:40:33.524Z,26.10
2022-08-16T03:43:20.742Z,25.00
2022-08-16T03:45:52.326Z,25.43
2022-08-16T03:48:37.229Z,26.92
2022-08-16T03:51:12.227Z,27.30
2022-08-16T03:53:41.303Z,25.33
2022-08-16T03:56:20.084Z,31.27
2022-08-16T03:58:50.636Z,27.27
2022-08-16T04:01:19.520Z,28.63
2022-08-16T04:03:49.899Z,28.77
2022-08-16T04:06:17.990Z,26.55
2022-08-16T04:08:45.991Z,31.92
2022-08-16T04:11:16.594Z,25.88
2022-08-16T04:13:59.003Z,25.85
2022-08-16T04:16:32.267Z,24.52
2022-08-16T04:19:04.552Z,29.65
2022-08-16T04:21:33.350Z,26.45
2022-08-16T04:24:02.839Z,23.48
2022-08-16T04:26:32.326Z,26.30
2022-08-16T04:29:17.034Z,28.55
2022-08-16T04:31:56.797Z,26.73
2022-08-16T04:34:30.027Z,31.60
2022-08-16T04:36:59.019Z,27.40
2022-08-16T04:39:46.281Z,27.25
2022-08-16T04:42:16.318Z,29.73
2022-08-16T04:44:53.613Z,29.02
2022-08-16T04:47:24.467Z,28.85
2022-08-16T04:49:54.198Z,28.20
2022-08-16T04:52:33.671Z,27.00
2022-08-16T04:55:07.883Z,32.10
2022-08-16T04:57:37.032Z,30.38
2022-08-16T05:00:31.952Z,32.07
2022-08-16T05:03:03.023Z,31.67
2022-08-16T05:05:44.894Z,30.65
2022-08-16T05:08:28.985Z,31.20
2022-08-16T05:11:00.593Z,30.30
2022-08-16T05:13:40.474Z,32.70
2022-08-16T05:16:11.917Z,36.03
2022-08-16T05:18:44.848Z,30.95
2022-08-16T05:21:14.439Z,33.47
2022-08-16T05:23:45.461Z,33.55
2022-08-16T05:26:20.520Z,30.13
2022-08-16T05:28:55.494Z,33.13
2022-08-16T05:31:24.226Z,28.58
2022-08-16T05:33:58.720Z,30.52
2022-08-16T05:36:34.279Z,28.48
2022-08-16T05:39:07.811Z,28.77
2022-08-16T05:41:45.373Z,31.70
2022-08-16T05:44:24.241Z,30.55
2022-08-16T05:46:56.033Z,33.28
2022-08-16T05:49:24.738Z,28.77
2022-08-16T05:51:55.559Z,27.27
2022-08-16T05:54:26.094Z,28.88
2022-08-16T05:56:54.614Z,26.25
2022-08-16T05:59:24.380Z,32.20
2022-08-16T06:01:55.557Z,31.02
2022-08-16T06:04:35.962Z,29.50
2022-08-16T06:07:09.124Z,32.15
2022-08-16T06:09:53.142Z,26.67
2022-08-16T06:12:27.490Z,28.52
2022-08-16T06:14:59.842Z,30.90
2022-08-16T06:17:42.857Z,28.52
2022-08-16T06:20:18.048Z,30.05
2022-08-16T06:22:57.621Z,33.72
2022-08-16T06:25:36.666Z,30.10
2022-08-16T06:28:10.147Z,26.67
2022-08-16T06:30:45.200Z,27.60
2022-08-16T06:33:22.170Z,31.17
2022-08-16T06:35:55.009Z,33.03
2022-08-16T06:38:32.794Z,29.65
2022-08-16T06:41:04.017Z,28.52
2022-08-16T06:43:32.137Z,28.48
2022-08-16T06:46:00.585Z,28.60
2022-08-16T06:48:33.184Z,32.67
2022-08-16T06:51:02.547Z,30.27
2022-08-16T06:53:33.693Z,32.37
2022-08-16T06:56:06.009Z,38.58
2022-08-16T06:58:41.862Z,35.58
2022-08-16T07:01:14.982Z,32.20
2022-08-16T07:03:55.901Z,31.80
2022-08-16T07:06:27.080Z,33.83
2022-08-16T07:08:56.981Z,31.80
2022-08-16T07:11:47.359Z,34.30
2022-08-16T07:14:24.121Z,28.03
2022-08-16T07:16:58.287Z,30.17
2022-08-16T07:20:03.990Z,29.95
2022-08-16T07:22:37.495Z,28.80
2022-08-16T07:25:06.686Z,26.83
2022-08-16T07:27:37.472Z,29.08
2022-08-16T07:30:46.003Z,26.45
2022-08-16T07:32:57.176Z,35.75
2022-08-16T07:35:25.185Z,35.22
2022-08-16T07:37:53.309Z,37.58
2022-08-16T07:40:42.801Z,38.03
2022-08-16T07:43:11.274Z,44.33
2022-08-16T07:45:39.617Z,40.63
2022-08-16T07:48:12.515Z,39.03
2022-08-16T07:50:55.740Z,40.13
2022-08-16T07:53:28.940Z,41.45
2022-08-16T07:56:00.169Z,47.42
2022-08-16T07:58:35.184Z,40.63
2022-08-16T08:01:10.958Z,42.53
2022-08-16T08:03:48.448Z,38.08
2022-08-16T08:06:18.378Z,46.08
2022-08-16T08:08:49.192Z,41.17
2022-08-16T08:11:23.741Z,40.72
2022-08-16T08:13:53.888Z,46.25
2022-08-16T08:16:30.931Z,40.30
2022-08-16T08:19:02.677Z,42.53
2022-08-16T08:22:00.754Z,45.83
2022-08-16T08:24:21.220Z,45.65
2022-08-16T08:26:50.809Z,45.05
2022-08-16T08:29:23.038Z,42.75
2022-08-16T08:31:53.923Z,44.03
2022-08-16T08:34:22.993Z,46.13
2022-08-16T08:36:54.477Z,43.17
2022-08-16T08:39:23.469Z,43.88
2022-08-16T08:41:53.348Z,51.22
2022-08-16T08:44:29.273Z,44.53
2022-08-16T08:47:01.574Z,42.13
2022-08-16T08:49:46.639Z,44.08
2022-08-16T08:52:35.023Z,38.70
2022-08-16T08:55:10.527Z,39.38
2022-08-16T08:57:41.293Z,44.00
2022-08-16T09:00:13.332Z,43.45
2022-08-16T09:02:42.967Z,47.23
2022-08-16T09:05:15.763Z,41.50
2022-08-16T09:08:00.467Z,40.15
2022-08-16T09:10:29.895Z,44.60
2022-08-16T09:12:59.329Z,43.55
2022-08-16T09:15:33.266Z,43.80
2022-08-16T09:18:02.148Z,44.90
2022-08-16T09:20:58.531Z,36.60
2022-08-16T09:23:29.462Z,43.15
2022-08-16T09:25:57.505Z,41.92
2022-08-16T09:29:14.043Z,38.70
2022-08-16T09:31:17.093Z,39.30
2022-08-16T09:33:46.028Z,38.30
2022-08-16T09:36:31.585Z,36.00
2022-08-16T09:39:02.210Z,34.33
2022-08-16T09:41:31.691Z,39.03
2022-08-16T09:45:09.449Z,36.20
2022-08-16T09:46:53.816Z,36.85
2022-08-16T09:49:26.213Z,42.55
2022-08-16T09:52:05.639Z,34.50
2022-08-16T09:54:34.257Z,38.27
2022-08-16T09:57:03.311Z,30.73
2022-08-16T09:59:38.695Z,35.00
2022-08-16T10:02:26.290Z,36.20
2022-08-16T10:04:55.877Z,35.40
2022-08-16T10:07:24.578Z,33.22
2022-08-16T10:09:55.260Z,35.00
2022-08-16T10:12:43.665Z,38.13
2022-08-16T10:15:15.509Z,41.85
2022-08-16T10:18:00.990Z,37.92
2022-08-16T10:20:31.699Z,36.22
2022-08-16T10:23:06.062Z,33.15
2022-08-16T10:27:16.553Z,35.95
2022-08-16T10:28:28.627Z,33.70
2022-08-16T10:30:59.784Z,37.90
2022-08-16T10:33:29.423Z,33.87
2022-08-16T10:36:03.001Z,44.45
2022-08-16T10:38:33.048Z,38.22
2022-08-16T10:41:05.103Z,31.55
2022-08-16T10:43:34.959Z,32.00
2022-08-16T10:46:39.995Z,30.20
2022-08-16T10:48:53.986Z,25.40
2022-08-16T10:51:33.737Z,33.00
2022-08-16T10:54:28.456Z,25.67
2022-08-16T10:56:58.128Z,23.17
2022-08-16T10:59:39.188Z,23.90
2022-08-16T11:02:57.530Z,30.05
2022-08-16T11:05:08.926Z,28.45
2022-08-16T11:07:51.447Z,34.10
2022-08-16T11:16:25.360Z,26.60
2022-08-16T11:19:05.731Z,24.55
2022-08-16T11:22:38.988Z,26.90
2022-08-16T11:24:42.570Z,25.35
2022-08-16T11:27:23.593Z,25.52
2022-08-16T11:29:55.581Z,24.95
2022-08-16T11:32:32.340Z,27.42
2022-08-16T11:35:13.695Z,24.15
2022-08-16T11:40:38.679Z,23.20
2022-08-16T11:43:09.970Z,33.97
2022-08-16T11:45:38.571Z,25.55
2022-08-16T11:48:07.576Z,27.00
2022-08-16T11:50:37.257Z,27.25
2022-08-16T11:53:08.193Z,24.30
2022-08-16T11:55:38.408Z,24.70
2022-08-16T11:58:07.833Z,21.10
2022-08-16T12:00:50.576Z,24.42
2022-08-16T12:03:25.027Z,25.00
2022-08-16T12:06:11.197Z,25.08
2022-08-16T12:08:53.546Z,24.38
2022-08-16T12:11:23.535Z,22.70
2022-08-16T12:13:55.065Z,26.70
2022-08-16T12:16:23.009Z,25.02
2022-08-16T12:18:59.128Z,18.73
2022-08-16T12:21:35.876Z,24.77
2022-08-16T12:24:16.347Z,23.00
2022-08-16T12:26:44.754Z,21.00
2022-08-16T12:29:12.978Z,22.77
2022-08-16T12:31:59.301Z,27.43
2022-08-16T12:34:29.518Z,25.10
2022-08-16T12:37:02.426Z,31.08
2022-08-16T12:39:31.440Z,24.85
2022-08-16T12:42:00.274Z,27.52
2022-08-16T12:44:31.289Z,22.40
2022-08-16T12:47:16.999Z,21.97
2022-08-16T12:49:45.425Z,22.90
2022-08-16T12:52:32.741Z,24.10
2022-08-16T12:55:01.923Z,20.98
2022-08-16T12:57:36.716Z,23.48
2022-08-16T13:00:07.916Z,22.80
2022-08-16T13:02:36.598Z,20.87
2022-08-16T13:05:06.950Z,16.77
2022-08-16T13:07:45.031Z,12.90
2022-08-16T13:10:37.835Z,12.63
2022-08-16T13:13:09.163Z,17.00
2022-08-16T13:15:57.204Z,12.70
2022-08-16T13:18:34.449Z,17.83
2022-08-16T13:21:04.945Z,16.88
2022-08-16T13:23:35.676Z,15.50
2022-08-16T13:26:04.704Z,21.27
2022-08-16T13:28:33.239Z,17.42
2022-08-16T13:31:03.313Z,15.68
2022-08-16T13:33:36.942Z,16.65
2022-08-16T13:36:07.875Z,20.92
2022-08-16T13:38:50.346Z,16.92
2022-08-16T13:41:19.675Z,16.70
2022-08-16T13:43:55.119Z,19.53
2022-08-16T13:46:26.360Z,16.58
2022-08-16T13:48:54.383Z,16.35
2022-08-16T13:51:24.187Z,18.40
2022-08-16T13:54:02.848Z,20.70
2022-08-16T13:56:37.432Z,17.00
2022-08-16T13:59:16.506Z,17.42
2022-08-16T14:01:55.739Z,16.42
2022-08-16T14:04:28.866Z,14.13
2022-08-16T14:06:58.756Z,15.70
2022-08-16T14:09:28.731Z,11.98
2022-08-16T14:11:57.617Z,12.10
2022-08-16T14:14:29.207Z,11.40
2022-08-16T14:16:58.809Z,14.43
2022-08-16T14:19:27.773Z,13.73
2022-08-16T14:22:03.915Z,11.73
2022-08-16T14:24:46.954Z,12.43
2022-08-16T14:27:17.889Z,10.13
2022-08-16T14:29:49.206Z,10.18
2022-08-16T14:32:33.582Z,7.07
2022-08-16T14:35:03.995Z,10.20
2022-08-16T14:37:32.677Z,6.20
2022-08-16T14:40:03.257Z,7.88
2022-08-16T14:42:31.824Z,8.70
2022-08-16T14:45:00.491Z,8.50
2022-08-16T14:47:34.390Z,9.90
2022-08-16T14:50:03.289Z,7.57
2022-08-16T14:55:24.040Z,5.88
2022-08-16T14:57:54.503Z,8.43
2022-08-16T15:00:33.167Z,8.73
2022-08-16T15:03:10.505Z,7.00
2022-08-16T15:05:40.310Z,7.05
2022-08-16T15:08:08.722Z,8.98
2022-08-16T15:10:42.722Z,13.90
2022-08-16T15:13:15.343Z,24.55
2022-08-16T15:15:45.222Z,26.05
2022-08-16T15:18:31.530Z,24.60
2022-08-16T15:21:01.737Z,19.23
2022-08-16T15:23:31.571Z,18.95
2022-08-16T15:26:08.012Z,19.37
2022-08-16T15:28:38.094Z,18.90
2022-08-16T15:31:08.141Z,19.58
2022-08-16T15:33:44.338Z,19.27
2022-08-16T15:36:18.097Z,19.35
2022-08-16T15:39:02.105Z,17.35
2022-08-16T15:42:02.747Z,18.30
2022-08-16T15:44:44.120Z,19.13
2022-08-16T15:47:21.224Z,18.80
2022-08-16T15:49:54.615Z,21.20
2022-08-16T15:52:29.292Z,23.83
2022-08-16T15:54:59.325Z,19.77
2022-08-16T15:57:41.359Z,19.67
2022-08-16T16:00:14.828Z,18.70
2022-08-16T16:02:43.740Z,23.03
2022-08-16T16:05:12.263Z,28.90
2022-08-16T16:07:55.899Z,19.63
2022-08-16T16:10:29.906Z,20.87
2022-08-16T16:13:01.772Z,19.35
2022-08-16T16:15:33.425Z,19.85
2022-08-16T16:18:09.383Z,19.15
2022-08-16T16:20:39.765Z,19.55
2022-08-16T16:23:10.532Z,23.90
2022-08-16T16:25:44.018Z,20.00
2022-08-16T16:28:46.084Z,22.45
2022-08-16T16:31:05.733Z,21.80
2022-08-16T16:33:36.888Z,23.10
2022-08-16T16:36:07.309Z,21.85
2022-08-16T16:38:36.339Z,19.83
2022-08-16T16:41:10.266Z,22.67
2022-08-16T16:43:41.582Z,23.65
2022-08-16T16:46:40.469Z,23.42
2022-08-16T16:49:03.885Z,17.27
2022-08-16T16:51:40.688Z,17.30
2022-08-16T16:54:12.840Z,17.50
2022-08-16T16:56:45.936Z,22.80
2022-08-16T16:59:22.462Z,20.83
2022-08-16T17:01:59.328Z,20.83
2022-08-16T17:04:39.692Z,20.40
2022-08-16T17:07:11.165Z,19.63
2022-08-16T17:09:41.047Z,22.25
2022-08-16T17:12:10.023Z,15.95
2022-08-16T17:14:43.925Z,17.00
2022-08-16T17:17:14.694Z,19.08
2022-08-16T17:19:43.993Z,19.08
2022-08-16T17:22:15.510Z,16.60
2022-08-16T17:24:50.506Z,16.50
2022-08-16T17:27:33.192Z,12.25
2022-08-16T17:30:15.797Z,13.15
2022-08-16T17:32:50.298Z,12.35
2022-08-16T17:35:25.281Z,13.68
2022-08-16T17:38:38.705Z,16.83
2022-08-16T17:41:08.168Z,10.48
2022-08-16T17:43:44.381Z,11.98
2022-08-16T17:46:51.375Z,12.90
2022-08-16T17:49:04.739Z,13.50
2022-08-16T17:51:34.206Z,12.07
2022-08-16T17:54:03.476Z,14.25
2022-08-16T17:56:31.518Z,16.88
2022-08-16T17:58:59.440Z,16.63
2022-08-16T18:01:29.832Z,10.48
2022-08-16T18:04:06.907Z,11.75
2022-08-16T18:06:37.991Z,11.05
2022-08-16T18:09:06.477Z,11.82
2022-08-16T18:11:38.293Z,12.60
2022-08-16T18:14:09.845Z,16.10
2022-08-16T18:16:40.375Z,14.47
2022-08-16T18:19:08.343Z,15.65
2022-08-16T18:21:53.780Z,15.35
2022-08-16T18:24:21.817Z,15.75
2022-08-16T18:26:49.730Z,14.38
2022-08-16T18:29:18.068Z,18.92
2022-08-16T18:31:50.649Z,14.98
2022-08-16T18:34:20.543Z,13.88
2022-08-16T18:36:48.529Z,17.95
2022-08-16T18:39:16.456Z,16.67
2022-08-16T18:41:47.096Z,18.10
2022-08-16T18:44:25.441Z,19.85
2022-08-16T18:46:57.240Z,18.75
2022-08-16T18:49:25.453Z,19.27
2022-08-16T18:51:58.049Z,19.75
2022-08-16T18:54:28.061Z,22.45
2022-08-16T18:56:58.124Z,20.88
2022-08-16T18:59:28.594Z,18.20
2022-08-16T19:02:04.403Z,20.95
2022-08-16T19:04:50.563Z,19.83
2022-08-16T19:07:22.404Z,23.40
2022-08-16T19:09:50.452Z,20.40
2022-08-16T19:12:37.909Z,19.77
2022-08-16T19:15:12.110Z,21.35
2022-08-16T19:17:44.040Z,26.85
2022-08-16T19:20:14.028Z,26.05
2022-08-16T19:25:47.593Z,26.25
2022-08-16T19:28:49.392Z,31.02
2022-08-16T19:31:12.288Z,27.83
2022-08-16T19:33:53.278Z,27.40
2022-08-16T19:36:30.954Z,23.45
2022-08-16T19:39:04.631Z,24.80
2022-08-16T19:41:35.036Z,19.60
2022-08-16T19:44:03.235Z,20.85
2022-08-16T19:46:31.849Z,19.83
2022-08-16T19:49:01.386Z,18.60
2022-08-16T19:51:29.715Z,17.63
2022-08-16T19:53:57.652Z,14.98
2022-08-16T19:56:26.834Z,15.07
2022-08-16T20:01:43.719Z,16.98
2022-08-16T20:04:13.883Z,15.00
2022-08-16T20:06:41.965Z,12.98
2022-08-16T20:09:15.391Z,14.98
2022-08-16T20:11:45.312Z,14.85
2022-08-16T20:14:19.281Z,16.38
2022-08-16T20:16:55.365Z,12.85
2022-08-16T20:19:25.086Z,13.73
2022-08-16T20:21:53.040Z,13.85
2022-08-16T20:24:34.034Z,14.43
2022-08-16T20:27:04.522Z,13.40
2022-08-16T20:29:32.513Z,11.18
2022-08-16T20:32:00.445Z,13.35
2022-08-16T20:34:29.761Z,14.30
2022-08-16T20:36:57.725Z,15.82
2022-08-16T20:39:25.775Z,13.65
2022-08-16T20:41:53.801Z,18.40
2022-08-16T20:44:23.046Z,15.85
2022-08-16T20:46:53.591Z,14.15
2022-08-16T20:49:21.663Z,15.00
2022-08-16T20:51:55.936Z,14.23
2022-08-16T20:54:25.538Z,16.13
2022-08-16T20:56:53.697Z,13.95
2022-08-16T20:59:21.733Z,13.90
2022-08-16T21:01:50.618Z,15.38
2022-08-16T21:04:19.836Z,15.45
2022-08-16T21:06:54.209Z,20.15
2022-08-16T21:09:25.578Z,14.30
2022-08-16T21:11:55.112Z,15.60
2022-08-16T21:14:23.329Z,14.25
2022-08-16T21:16:51.363Z,16.67
2022-08-16T21:19:19.418Z,16.58
2022-08-16T21:21:47.493Z,16.20
2022-08-16T21:24:15.974Z,16.13
2022-08-16T21:26:51.040Z,18.90
2022-08-16T21:29:24.914Z,20.65
2022-08-16T21:31:54.321Z,20.10
2022-08-16T21:34:22.394Z,24.52
2022-08-16T21:36:50.287Z,19.35
2022-08-16T21:39:18.278Z,16.98
2022-08-16T21:41:47.537Z,17.58
2022-08-16T21:44:15.797Z,16.45
2022-08-16T21:46:43.813Z,19.30
2022-08-16T21:49:11.886Z,20.48
2022-08-16T21:51:39.900Z,21.13
2022-08-16T21:54:07.786Z,19.90
2022-08-16T21:56:35.807Z,17.83
2022-08-16T21:59:10.666Z,15.45
2022-08-16T22:01:41.288Z,22.93
2022-08-16T22:04:37.269Z,19.88
2022-08-16T22:06:58.130Z,17.20
2022-08-16T22:09:26.484Z,16.25
2022-08-16T22:11:54.413Z,15.75
2022-08-16T22:14:23.720Z,15.65
2022-08-16T22:16:51.905Z,16.98
2022-08-16T22:19:19.905Z,16.42
2022-08-16T22:21:47.803Z,15.20
2022-08-16T22:24:15.798Z,15.93
2022-08-16T22:26:43.904Z,16.05
2022-08-16T22:29:15.003Z,17.77
2022-08-16T22:31:45.144Z,16.73
2022-08-16T22:34:13.927Z,15.25
2022-08-16T22:36:42.338Z,17.67
2022-08-16T22:39:14.032Z,15.75
2022-08-16T22:41:45.333Z,17.63
2022-08-16T22:44:13.958Z,16.52
2022-08-16T22:46:42.685Z,19.30
2022-08-16T22:49:12.878Z,17.20
2022-08-16T22:51:41.292Z,22.87
2022-08-16T22:54:43.775Z,17.75
2022-08-16T22:56:57.677Z,17.53
2022-08-16T22:59:26.001Z,22.83
2022-08-16T23:01:54.599Z,20.20
2022-08-16T23:04:24.937Z,22.77
2022-08-16T23:06:53.220Z,20.87
2022-08-16T23:09:21.668Z,19.37
2022-08-16T23:11:49.606Z,19.92
2022-08-16T23:14:17.646Z,20.42
2022-08-16T23:16:47.220Z,25.23
2022-08-16T23:19:17.423Z,25.98
2022-08-16T23:21:48.898Z,22.00
2022-08-16T23:24:19.289Z,20.35
2022-08-16T23:26:49.326Z,25.45
2022-08-16T23:29:23.929Z,24.23
2022-08-16T23:31:56.924Z,26.83
2022-08-16T23:34:26.783Z,22.75
2022-08-16T23:36:56.455Z,26.15
2022-08-16T23:39:24.959Z,21.50
2022-08-16T23:41:52.987Z,24.02
2022-08-16T23:44:55.121Z,26.13
2022-08-16T23:47:09.538Z,26.35
2022-08-16T23:49:59.138Z,26.48
2022-08-16T23:52:53.803Z,24.90
2022-08-16T23:55:16.365Z,28.07
2022-08-16T23:57:45.900Z,25.50
